sensor_id;sensor_type;location;lat;lon;timestamp;P1;durP1;ratioP1;P2;durP2;ratioP2
77191;SDS011;66172;48.526;8.078;2023-07-13T00:01:29;3.70;;;0.90;;
77191;SDS011;66172;48.526;8.078;2023-07-13T00:03:58;5.95;;;1.00;;
77191;SDS011;66172;48.526;8.078;2023-07-13T00:06:24;5.80;;;1.20;;
77191;SDS011;66172;48.526;8.078;2023-07-13T00:08:50;4.20;;;1.45;;
77191;SDS011;66172;48.526;8.078;2023-07-13T00:11:16;3.97;;;1.30;;
77191;SDS011;66172;48.526;8.078;2023-07-13T00:13:43;6.05;;;1.30;;
77191;SDS011;66172;48.526;8.078;2023-07-13T00:16:09;9.32;;;1.67;;
77191;SDS011;66172;48.526;8.078;2023-07-13T00:18:36;5.47;;;1.50;;
77191;SDS011;66172;48.526;8.078;2023-07-13T00:21:03;6.60;;;1.30;;
77191;SDS011;66172;48.526;8.078;2023-07-13T00:23:33;6.03;;;1.40;;
77191;SDS011;66172;48.526;8.078;2023-07-13T00:26:04;6.00;;;1.30;;
77191;SDS011;66172;48.526;8.078;2023-07-13T00:28:31;6.53;;;1.17;;
77191;SDS011;66172;48.526;8.078;2023-07-13T00:30:58;7.72;;;1.10;;
77191;SDS011;66172;48.526;8.078;2023-07-13T00:33:24;3.50;;;0.80;;
77191;SDS011;66172;48.526;8.078;2023-07-13T00:35:50;4.37;;;1.07;;
77191;SDS011;66172;48.526;8.078;2023-07-13T00:38:16;5.22;;;1.10;;
77191;SDS011;66172;48.526;8.078;2023-07-13T00:40:42;5.35;;;0.90;;
77191;SDS011;66172;48.526;8.078;2023-07-13T00:43:15;4.80;;;0.90;;
77191;SDS011;66172;48.526;8.078;2023-07-13T00:48:09;3.60;;;0.80;;
77191;SDS011;66172;48.526;8.078;2023-07-13T00:50:37;4.38;;;1.00;;
77191;SDS011;66172;48.526;8.078;2023-07-13T00:53:04;3.97;;;0.85;;
77191;SDS011;66172;48.526;8.078;2023-07-13T00:55:30;8.73;;;1.20;;
77191;SDS011;66172;48.526;8.078;2023-07-13T00:57:56;4.95;;;1.42;;
77191;SDS011;66172;48.526;8.078;2023-07-13T01:00:22;5.32;;;1.25;;
77191;SDS011;66172;48.526;8.078;2023-07-13T01:02:48;4.05;;;1.20;;
77191;SDS011;66172;48.526;8.078;2023-07-13T01:05:16;5.47;;;1.10;;
77191;SDS011;66172;48.526;8.078;2023-07-13T01:07:45;4.72;;;0.82;;
77191;SDS011;66172;48.526;8.078;2023-07-13T01:10:13;4.07;;;0.82;;
77191;SDS011;66172;48.526;8.078;2023-07-13T01:12:39;3.90;;;1.10;;
77191;SDS011;66172;48.526;8.078;2023-07-13T01:15:32;4.05;;;0.90;;
77191;SDS011;66172;48.526;8.078;2023-07-13T01:18:22;4.90;;;1.20;;
77191;SDS011;66172;48.526;8.078;2023-07-13T01:20:51;6.45;;;1.35;;
77191;SDS011;66172;48.526;8.078;2023-07-13T01:23:18;4.53;;;1.00;;
77191;SDS011;66172;48.526;8.078;2023-07-13T01:25:44;4.95;;;1.25;;
77191;SDS011;66172;48.526;8.078;2023-07-13T01:28:11;5.05;;;1.05;;
77191;SDS011;66172;48.526;8.078;2023-07-13T01:30:37;4.57;;;0.97;;
77191;SDS011;66172;48.526;8.078;2023-07-13T01:33:08;4.35;;;1.05;;
77191;SDS011;66172;48.526;8.078;2023-07-13T01:35:35;5.22;;;0.93;;
77191;SDS011;66172;48.526;8.078;2023-07-13T01:38:01;4.43;;;1.10;;
77191;SDS011;66172;48.526;8.078;2023-07-13T01:40:28;4.97;;;1.17;;
77191;SDS011;66172;48.526;8.078;2023-07-13T01:42:54;3.70;;;1.17;;
77191;SDS011;66172;48.526;8.078;2023-07-13T01:45:20;6.53;;;1.20;;
77191;SDS011;66172;48.526;8.078;2023-07-13T01:47:46;5.43;;;1.00;;
77191;SDS011;66172;48.526;8.078;2023-07-13T01:50:12;7.57;;;1.35;;
77191;SDS011;66172;48.526;8.078;2023-07-13T01:52:38;5.93;;;1.10;;
77191;SDS011;66172;48.526;8.078;2023-07-13T01:55:04;6.93;;;1.20;;
77191;SDS011;66172;48.526;8.078;2023-07-13T01:57:30;3.80;;;0.93;;
77191;SDS011;66172;48.526;8.078;2023-07-13T01:59:56;4.65;;;1.30;;
77191;SDS011;66172;48.526;8.078;2023-07-13T02:02:22;4.20;;;1.30;;
77191;SDS011;66172;48.526;8.078;2023-07-13T02:04:48;5.22;;;1.15;;
77191;SDS011;66172;48.526;8.078;2023-07-13T02:07:14;6.00;;;1.25;;
77191;SDS011;66172;48.526;8.078;2023-07-13T02:09:40;4.45;;;1.10;;
77191;SDS011;66172;48.526;8.078;2023-07-13T02:12:07;7.10;;;0.90;;
77191;SDS011;66172;48.526;8.078;2023-07-13T02:14:33;5.23;;;1.27;;
77191;SDS011;66172;48.526;8.078;2023-07-13T02:16:59;6.43;;;1.42;;
77191;SDS011;66172;48.526;8.078;2023-07-13T02:19:25;4.22;;;0.80;;
77191;SDS011;66172;48.526;8.078;2023-07-13T02:21:51;5.57;;;1.10;;
77191;SDS011;66172;48.526;8.078;2023-07-13T02:24:17;4.78;;;1.00;;
77191;SDS011;66172;48.526;8.078;2023-07-13T02:26:44;5.72;;;1.42;;
77191;SDS011;66172;48.526;8.078;2023-07-13T02:29:11;5.13;;;1.40;;
77191;SDS011;66172;48.526;8.078;2023-07-13T02:31:37;4.40;;;1.57;;
77191;SDS011;66172;48.526;8.078;2023-07-13T02:34:03;6.22;;;1.30;;
77191;SDS011;66172;48.526;8.078;2023-07-13T02:36:29;5.28;;;1.27;;
77191;SDS011;66172;48.526;8.078;2023-07-13T02:38:57;5.25;;;1.58;;
77191;SDS011;66172;48.526;8.078;2023-07-13T02:41:26;7.20;;;1.10;;
77191;SDS011;66172;48.526;8.078;2023-07-13T02:43:52;6.00;;;1.20;;
77191;SDS011;66172;48.526;8.078;2023-07-13T02:46:18;4.15;;;1.15;;
77191;SDS011;66172;48.526;8.078;2023-07-13T02:48:45;8.38;;;1.38;;
77191;SDS011;66172;48.526;8.078;2023-07-13T02:51:11;5.00;;;1.10;;
77191;SDS011;66172;48.526;8.078;2023-07-13T02:53:37;6.07;;;1.30;;
77191;SDS011;66172;48.526;8.078;2023-07-13T02:56:03;9.10;;;1.70;;
77191;SDS011;66172;48.526;8.078;2023-07-13T02:58:30;4.45;;;1.20;;
77191;SDS011;66172;48.526;8.078;2023-07-13T03:00:56;5.50;;;1.05;;
77191;SDS011;66172;48.526;8.078;2023-07-13T03:03:23;5.57;;;1.15;;
77191;SDS011;66172;48.526;8.078;2023-07-13T03:05:57;7.77;;;1.17;;
77191;SDS011;66172;48.526;8.078;2023-07-13T03:08:25;4.53;;;1.48;;
77191;SDS011;66172;48.526;8.078;2023-07-13T03:11:00;4.43;;;1.17;;
77191;SDS011;66172;48.526;8.078;2023-07-13T03:13:27;6.43;;;1.45;;
77191;SDS011;66172;48.526;8.078;2023-07-13T03:15:53;4.73;;;1.20;;
77191;SDS011;66172;48.526;8.078;2023-07-13T03:18:19;4.63;;;1.10;;
77191;SDS011;66172;48.526;8.078;2023-07-13T03:20:45;6.47;;;1.40;;
77191;SDS011;66172;48.526;8.078;2023-07-13T03:23:11;6.70;;;1.27;;
77191;SDS011;66172;48.526;8.078;2023-07-13T03:25:37;6.75;;;1.17;;
77191;SDS011;66172;48.526;8.078;2023-07-13T03:28:02;5.97;;;1.10;;
77191;SDS011;66172;48.526;8.078;2023-07-13T03:30:30;5.78;;;1.27;;
77191;SDS011;66172;48.526;8.078;2023-07-13T03:32:55;7.90;;;1.20;;
77191;SDS011;66172;48.526;8.078;2023-07-13T03:35:21;4.95;;;1.30;;
77191;SDS011;66172;48.526;8.078;2023-07-13T03:37:47;5.03;;;1.40;;
77191;SDS011;66172;48.526;8.078;2023-07-13T03:40:13;6.03;;;1.10;;
77191;SDS011;66172;48.526;8.078;2023-07-13T03:42:39;5.38;;;1.55;;
77191;SDS011;66172;48.526;8.078;2023-07-13T03:45:05;7.22;;;1.67;;
77191;SDS011;66172;48.526;8.078;2023-07-13T03:47:31;9.10;;;1.20;;
77191;SDS011;66172;48.526;8.078;2023-07-13T03:49:57;7.10;;;1.30;;
77191;SDS011;66172;48.526;8.078;2023-07-13T03:52:23;5.00;;;1.30;;
77191;SDS011;66172;48.526;8.078;2023-07-13T03:54:49;4.00;;;1.10;;
77191;SDS011;66172;48.526;8.078;2023-07-13T03:57:15;4.00;;;1.17;;
77191;SDS011;66172;48.526;8.078;2023-07-13T03:59:41;4.13;;;1.20;;
77191;SDS011;66172;48.526;8.078;2023-07-13T04:02:07;6.07;;;1.33;;
77191;SDS011;66172;48.526;8.078;2023-07-13T04:04:33;5.82;;;1.45;;
77191;SDS011;66172;48.526;8.078;2023-07-13T04:06:59;5.15;;;1.50;;
77191;SDS011;66172;48.526;8.078;2023-07-13T04:09:25;5.03;;;1.50;;
77191;SDS011;66172;48.526;8.078;2023-07-13T04:11:51;5.88;;;1.35;;
77191;SDS011;66172;48.526;8.078;2023-07-13T04:14:17;8.25;;;1.70;;
77191;SDS011;66172;48.526;8.078;2023-07-13T04:16:43;4.20;;;1.33;;
77191;SDS011;66172;48.526;8.078;2023-07-13T04:19:09;7.45;;;1.52;;
77191;SDS011;66172;48.526;8.078;2023-07-13T04:21:35;6.57;;;1.60;;
77191;SDS011;66172;48.526;8.078;2023-07-13T04:24:02;6.57;;;1.40;;
77191;SDS011;66172;48.526;8.078;2023-07-13T04:26:29;4.88;;;1.80;;
77191;SDS011;66172;48.526;8.078;2023-07-13T04:28:56;5.78;;;1.60;;
77191;SDS011;66172;48.526;8.078;2023-07-13T04:31:22;7.45;;;1.50;;
77191;SDS011;66172;48.526;8.078;2023-07-13T04:33:48;4.60;;;1.50;;
77191;SDS011;66172;48.526;8.078;2023-07-13T04:36:16;6.95;;;1.80;;
77191;SDS011;66172;48.526;8.078;2023-07-13T04:38:42;4.68;;;1.45;;
77191;SDS011;66172;48.526;8.078;2023-07-13T04:41:08;5.53;;;1.30;;
77191;SDS011;66172;48.526;8.078;2023-07-13T04:43:35;5.93;;;1.52;;
77191;SDS011;66172;48.526;8.078;2023-07-13T04:46:05;9.37;;;1.20;;
77191;SDS011;66172;48.526;8.078;2023-07-13T04:48:35;5.38;;;1.40;;
77191;SDS011;66172;48.526;8.078;2023-07-13T04:51:01;9.38;;;1.67;;
77191;SDS011;66172;48.526;8.078;2023-07-13T04:53:28;4.78;;;1.40;;
77191;SDS011;66172;48.526;8.078;2023-07-13T04:55:55;6.88;;;1.48;;
77191;SDS011;66172;48.526;8.078;2023-07-13T04:58:21;5.00;;;1.33;;
77191;SDS011;66172;48.526;8.078;2023-07-13T05:00:48;5.88;;;1.50;;
77191;SDS011;66172;48.526;8.078;2023-07-13T05:03:14;6.50;;;1.65;;
77191;SDS011;66172;48.526;8.078;2023-07-13T05:05:40;5.88;;;1.67;;
77191;SDS011;66172;48.526;8.078;2023-07-13T05:08:06;4.83;;;1.20;;
77191;SDS011;66172;48.526;8.078;2023-07-13T05:10:33;5.50;;;1.58;;
77191;SDS011;66172;48.526;8.078;2023-07-13T05:12:59;6.63;;;1.50;;
77191;SDS011;66172;48.526;8.078;2023-07-13T05:15:25;7.35;;;1.65;;
77191;SDS011;66172;48.526;8.078;2023-07-13T05:17:52;4.57;;;1.30;;
77191;SDS011;66172;48.526;8.078;2023-07-13T05:20:18;7.22;;;1.55;;
77191;SDS011;66172;48.526;8.078;2023-07-13T05:22:44;6.95;;;1.55;;
77191;SDS011;66172;48.526;8.078;2023-07-13T05:25:12;4.78;;;1.60;;
77191;SDS011;66172;48.526;8.078;2023-07-13T05:27:38;5.65;;;1.88;;
77191;SDS011;66172;48.526;8.078;2023-07-13T05:30:04;6.60;;;1.80;;
77191;SDS011;66172;48.526;8.078;2023-07-13T05:32:31;4.07;;;1.35;;
77191;SDS011;66172;48.526;8.078;2023-07-13T05:34:57;5.47;;;1.92;;
77191;SDS011;66172;48.526;8.078;2023-07-13T05:37:23;6.47;;;2.20;;
77191;SDS011;66172;48.526;8.078;2023-07-13T05:39:49;5.03;;;1.90;;
77191;SDS011;66172;48.526;8.078;2023-07-13T05:42:14;5.72;;;1.50;;
77191;SDS011;66172;48.526;8.078;2023-07-13T05:44:40;4.88;;;1.45;;
77191;SDS011;66172;48.526;8.078;2023-07-13T05:47:06;5.82;;;1.77;;
77191;SDS011;66172;48.526;8.078;2023-07-13T05:49:32;5.63;;;1.50;;
77191;SDS011;66172;48.526;8.078;2023-07-13T05:51:58;8.15;;;1.65;;
77191;SDS011;66172;48.526;8.078;2023-07-13T05:54:24;6.43;;;1.90;;
77191;SDS011;66172;48.526;8.078;2023-07-13T05:56:50;5.03;;;1.50;;
77191;SDS011;66172;48.526;8.078;2023-07-13T05:59:17;4.35;;;1.40;;
77191;SDS011;66172;48.526;8.078;2023-07-13T06:01:43;9.32;;;2.17;;
77191;SDS011;66172;48.526;8.078;2023-07-13T06:04:09;6.03;;;2.42;;
77191;SDS011;66172;48.526;8.078;2023-07-13T06:06:35;5.53;;;1.50;;
77191;SDS011;66172;48.526;8.078;2023-07-13T06:09:01;9.57;;;1.75;;
77191;SDS011;66172;48.526;8.078;2023-07-13T06:11:27;8.90;;;2.00;;
77191;SDS011;66172;48.526;8.078;2023-07-13T06:13:55;5.28;;;1.60;;
77191;SDS011;66172;48.526;8.078;2023-07-13T06:16:21;9.07;;;1.50;;
77191;SDS011;66172;48.526;8.078;2023-07-13T06:18:48;5.35;;;1.50;;
77191;SDS011;66172;48.526;8.078;2023-07-13T06:21:18;4.78;;;1.63;;
77191;SDS011;66172;48.526;8.078;2023-07-13T06:23:46;8.18;;;1.85;;
77191;SDS011;66172;48.526;8.078;2023-07-13T06:26:16;6.97;;;1.63;;
77191;SDS011;66172;48.526;8.078;2023-07-13T06:28:43;6.20;;;1.63;;
77191;SDS011;66172;48.526;8.078;2023-07-13T06:31:10;7.80;;;1.65;;
77191;SDS011;66172;48.526;8.078;2023-07-13T06:33:37;7.22;;;1.90;;
77191;SDS011;66172;48.526;8.078;2023-07-13T06:36:04;5.80;;;1.83;;
77191;SDS011;66172;48.526;8.078;2023-07-13T06:38:31;7.72;;;1.90;;
77191;SDS011;66172;48.526;8.078;2023-07-13T06:40:57;4.20;;;1.97;;
77191;SDS011;66172;48.526;8.078;2023-07-13T06:43:23;7.30;;;2.20;;
77191;SDS011;66172;48.526;8.078;2023-07-13T06:45:50;8.23;;;2.00;;
77191;SDS011;66172;48.526;8.078;2023-07-13T06:48:17;6.55;;;2.30;;
77191;SDS011;66172;48.526;8.078;2023-07-13T06:50:44;5.45;;;2.13;;
77191;SDS011;66172;48.526;8.078;2023-07-13T06:53:11;7.10;;;2.23;;
77191;SDS011;66172;48.526;8.078;2023-07-13T06:55:38;7.95;;;2.10;;
77191;SDS011;66172;48.526;8.078;2023-07-13T06:58:04;6.32;;;2.20;;
77191;SDS011;66172;48.526;8.078;2023-07-13T07:00:32;6.28;;;2.30;;
77191;SDS011;66172;48.526;8.078;2023-07-13T07:02:58;6.32;;;2.20;;
77191;SDS011;66172;48.526;8.078;2023-07-13T07:05:24;7.97;;;2.23;;
77191;SDS011;66172;48.526;8.078;2023-07-13T07:07:50;6.18;;;2.60;;
77191;SDS011;66172;48.526;8.078;2023-07-13T07:10:18;5.38;;;2.00;;
77191;SDS011;66172;48.526;8.078;2023-07-13T07:12:44;6.97;;;2.40;;
77191;SDS011;66172;48.526;8.078;2023-07-13T07:15:10;5.55;;;2.35;;
77191;SDS011;66172;48.526;8.078;2023-07-13T07:17:36;6.27;;;2.60;;
77191;SDS011;66172;48.526;8.078;2023-07-13T07:20:02;4.93;;;2.65;;
77191;SDS011;66172;48.526;8.078;2023-07-13T07:22:29;7.30;;;2.90;;
77191;SDS011;66172;48.526;8.078;2023-07-13T07:24:59;6.07;;;2.83;;
77191;SDS011;66172;48.526;8.078;2023-07-13T07:27:25;7.97;;;2.90;;
77191;SDS011;66172;48.526;8.078;2023-07-13T07:29:52;6.97;;;3.20;;
77191;SDS011;66172;48.526;8.078;2023-07-13T07:32:18;7.85;;;2.88;;
77191;SDS011;66172;48.526;8.078;2023-07-13T07:34:45;5.78;;;3.00;;
77191;SDS011;66172;48.526;8.078;2023-07-13T07:37:12;8.15;;;3.60;;
77191;SDS011;66172;48.526;8.078;2023-07-13T07:39:39;6.87;;;3.60;;
77191;SDS011;66172;48.526;8.078;2023-07-13T07:42:05;6.85;;;3.20;;
77191;SDS011;66172;48.526;8.078;2023-07-13T07:44:31;7.88;;;3.40;;
77191;SDS011;66172;48.526;8.078;2023-07-13T07:46:58;14.38;;;3.38;;
77191;SDS011;66172;48.526;8.078;2023-07-13T07:49:24;8.40;;;3.00;;
77191;SDS011;66172;48.526;8.078;2023-07-13T07:51:50;6.57;;;3.30;;
77191;SDS011;66172;48.526;8.078;2023-07-13T07:54:16;7.50;;;3.50;;
77191;SDS011;66172;48.526;8.078;2023-07-13T07:56:42;9.35;;;2.90;;
77191;SDS011;66172;48.526;8.078;2023-07-13T07:59:08;8.00;;;3.25;;
77191;SDS011;66172;48.526;8.078;2023-07-13T08:01:34;8.80;;;3.03;;
77191;SDS011;66172;48.526;8.078;2023-07-13T08:04:00;6.55;;;3.00;;
77191;SDS011;66172;48.526;8.078;2023-07-13T08:06:26;8.13;;;2.67;;
77191;SDS011;66172;48.526;8.078;2023-07-13T08:08:52;6.80;;;2.65;;
77191;SDS011;66172;48.526;8.078;2023-07-13T08:11:20;5.30;;;2.40;;
77191;SDS011;66172;48.526;8.078;2023-07-13T08:13:46;6.03;;;2.80;;
77191;SDS011;66172;48.526;8.078;2023-07-13T08:16:12;7.97;;;3.03;;
77191;SDS011;66172;48.526;8.078;2023-07-13T08:18:38;6.55;;;2.90;;
77191;SDS011;66172;48.526;8.078;2023-07-13T08:21:05;6.63;;;2.40;;
77191;SDS011;66172;48.526;8.078;2023-07-13T08:23:31;6.80;;;2.20;;
77191;SDS011;66172;48.526;8.078;2023-07-13T08:25:57;5.05;;;2.35;;
77191;SDS011;66172;48.526;8.078;2023-07-13T08:28:24;7.63;;;1.95;;
77191;SDS011;66172;48.526;8.078;2023-07-13T08:30:50;6.07;;;2.05;;
77191;SDS011;66172;48.526;8.078;2023-07-13T08:33:17;6.38;;;2.15;;
77191;SDS011;66172;48.526;8.078;2023-07-13T08:35:50;4.67;;;2.00;;
77191;SDS011;66172;48.526;8.078;2023-07-13T08:38:16;5.00;;;1.90;;
77191;SDS011;66172;48.526;8.078;2023-07-13T08:40:43;6.18;;;1.90;;
77191;SDS011;66172;48.526;8.078;2023-07-13T08:43:16;4.40;;;1.88;;
77191;SDS011;66172;48.526;8.078;2023-07-13T08:45:46;7.68;;;2.03;;
77191;SDS011;66172;48.526;8.078;2023-07-13T08:48:26;5.83;;;1.97;;
77191;SDS011;66172;48.526;8.078;2023-07-13T08:50:57;4.70;;;2.05;;
77191;SDS011;66172;48.526;8.078;2023-07-13T08:53:30;4.85;;;1.80;;
77191;SDS011;66172;48.526;8.078;2023-07-13T08:56:00;6.38;;;2.00;;
77191;SDS011;66172;48.526;8.078;2023-07-13T08:58:26;6.97;;;1.80;;
77191;SDS011;66172;48.526;8.078;2023-07-13T09:03:43;6.93;;;2.10;;
77191;SDS011;66172;48.526;8.078;2023-07-13T09:06:17;7.65;;;2.03;;
77191;SDS011;66172;48.526;8.078;2023-07-13T09:08:54;9.15;;;2.10;;
77191;SDS011;66172;48.526;8.078;2023-07-13T09:11:32;8.18;;;2.20;;
77191;SDS011;66172;48.526;8.078;2023-07-13T09:17:02;4.90;;;2.22;;
77191;SDS011;66172;48.526;8.078;2023-07-13T09:19:31;5.60;;;2.30;;
77191;SDS011;66172;48.526;8.078;2023-07-13T09:21:58;6.57;;;2.30;;
77191;SDS011;66172;48.526;8.078;2023-07-13T09:24:41;7.88;;;2.13;;
77191;SDS011;66172;48.526;8.078;2023-07-13T09:27:39;6.57;;;1.93;;
77191;SDS011;66172;48.526;8.078;2023-07-13T09:32:50;5.60;;;1.90;;
77191;SDS011;66172;48.526;8.078;2023-07-13T09:35:22;7.30;;;1.90;;
77191;SDS011;66172;48.526;8.078;2023-07-13T09:37:50;6.90;;;2.10;;
77191;SDS011;66172;48.526;8.078;2023-07-13T09:40:40;4.67;;;1.90;;
77191;SDS011;66172;48.526;8.078;2023-07-13T09:43:18;5.65;;;2.10;;
77191;SDS011;66172;48.526;8.078;2023-07-13T09:45:46;6.55;;;1.90;;
77191;SDS011;66172;48.526;8.078;2023-07-13T09:48:16;6.32;;;1.75;;
77191;SDS011;66172;48.526;8.078;2023-07-13T09:50:43;6.18;;;1.90;;
77191;SDS011;66172;48.526;8.078;2023-07-13T09:53:13;5.80;;;1.57;;
77191;SDS011;66172;48.526;8.078;2023-07-13T09:55:43;4.75;;;2.03;;
77191;SDS011;66172;48.526;8.078;2023-07-13T09:58:12;4.95;;;2.00;;
77191;SDS011;66172;48.526;8.078;2023-07-13T10:00:41;6.15;;;2.10;;
77191;SDS011;66172;48.526;8.078;2023-07-13T10:05:46;6.87;;;2.10;;
77191;SDS011;66172;48.526;8.078;2023-07-13T10:10:54;7.22;;;2.00;;
77191;SDS011;66172;48.526;8.078;2023-07-13T10:13:27;6.40;;;2.08;;
77191;SDS011;66172;48.526;8.078;2023-07-13T10:15:57;6.10;;;1.80;;
77191;SDS011;66172;48.526;8.078;2023-07-13T10:18:24;5.87;;;1.80;;
77191;SDS011;66172;48.526;8.078;2023-07-13T10:20:54;7.95;;;2.22;;
77191;SDS011;66172;48.526;8.078;2023-07-13T10:23:34;6.70;;;2.20;;
77191;SDS011;66172;48.526;8.078;2023-07-13T10:26:00;6.55;;;1.80;;
77191;SDS011;66172;48.526;8.078;2023-07-13T10:28:31;5.07;;;1.70;;
77191;SDS011;66172;48.526;8.078;2023-07-13T10:31:02;7.20;;;1.70;;
77191;SDS011;66172;48.526;8.078;2023-07-13T10:33:30;4.88;;;1.77;;
77191;SDS011;66172;48.526;8.078;2023-07-13T10:36:00;6.28;;;1.80;;
77191;SDS011;66172;48.526;8.078;2023-07-13T10:38:37;8.32;;;1.80;;
77191;SDS011;66172;48.526;8.078;2023-07-13T10:41:06;5.28;;;2.00;;
77191;SDS011;66172;48.526;8.078;2023-07-13T10:43:42;3.60;;;1.67;;
77191;SDS011;66172;48.526;8.078;2023-07-13T10:46:11;11.13;;;1.88;;
77191;SDS011;66172;48.526;8.078;2023-07-13T10:48:41;5.35;;;2.20;;
77191;SDS011;66172;48.526;8.078;2023-07-13T10:51:10;6.07;;;1.98;;
77191;SDS011;66172;48.526;8.078;2023-07-13T10:53:40;4.72;;;1.60;;
77191;SDS011;66172;48.526;8.078;2023-07-13T10:56:10;5.60;;;1.83;;
77191;SDS011;66172;48.526;8.078;2023-07-13T10:59:15;4.53;;;1.80;;
77191;SDS011;66172;48.526;8.078;2023-07-13T11:01:48;6.47;;;2.25;;
77191;SDS011;66172;48.526;8.078;2023-07-13T11:04:19;6.25;;;2.35;;
77191;SDS011;66172;48.526;8.078;2023-07-13T11:06:47;6.43;;;2.00;;
77191;SDS011;66172;48.526;8.078;2023-07-13T11:09:31;5.60;;;1.92;;
77191;SDS011;66172;48.526;8.078;2023-07-13T11:12:02;5.00;;;1.98;;
77191;SDS011;66172;48.526;8.078;2023-07-13T11:17:34;8.63;;;1.75;;
77191;SDS011;66172;48.526;8.078;2023-07-13T11:22:42;5.65;;;2.00;;
77191;SDS011;66172;48.526;8.078;2023-07-13T11:27:46;6.00;;;1.70;;
77191;SDS011;66172;48.526;8.078;2023-07-13T11:41:10;5.50;;;1.75;;
77191;SDS011;66172;48.526;8.078;2023-07-13T11:43:41;5.63;;;1.77;;
77191;SDS011;66172;48.526;8.078;2023-07-13T11:46:43;5.78;;;1.90;;
77191;SDS011;66172;48.526;8.078;2023-07-13T11:48:59;5.30;;;1.92;;
77191;SDS011;66172;48.526;8.078;2023-07-13T11:54:06;5.18;;;1.70;;
77191;SDS011;66172;48.526;8.078;2023-07-13T11:56:48;8.10;;;1.87;;
77191;SDS011;66172;48.526;8.078;2023-07-13T11:59:15;4.97;;;2.00;;
77191;SDS011;66172;48.526;8.078;2023-07-13T12:01:43;6.57;;;1.90;;
77191;SDS011;66172;48.526;8.078;2023-07-13T12:04:32;6.55;;;1.90;;
77191;SDS011;66172;48.526;8.078;2023-07-13T12:07:07;5.90;;;2.28;;
77191;SDS011;66172;48.526;8.078;2023-07-13T12:09:39;5.63;;;2.00;;
77191;SDS011;66172;48.526;8.078;2023-07-13T12:12:10;5.30;;;1.80;;
77191;SDS011;66172;48.526;8.078;2023-07-13T12:14:38;7.57;;;1.80;;
77191;SDS011;66172;48.526;8.078;2023-07-13T12:17:16;7.32;;;2.10;;
77191;SDS011;66172;48.526;8.078;2023-07-13T12:19:44;8.55;;;2.38;;
77191;SDS011;66172;48.526;8.078;2023-07-13T12:22:12;5.33;;;1.83;;
77191;SDS011;66172;48.526;8.078;2023-07-13T12:24:40;4.78;;;1.90;;
77191;SDS011;66172;48.526;8.078;2023-07-13T12:27:13;7.55;;;1.90;;
77191;SDS011;66172;48.526;8.078;2023-07-13T12:29:51;6.93;;;1.90;;
77191;SDS011;66172;48.526;8.078;2023-07-13T12:32:24;5.72;;;2.03;;
77191;SDS011;66172;48.526;8.078;2023-07-13T12:37:56;4.38;;;1.60;;
77191;SDS011;66172;48.526;8.078;2023-07-13T12:40:25;7.10;;;1.98;;
77191;SDS011;66172;48.526;8.078;2023-07-13T12:42:56;4.78;;;1.50;;
77191;SDS011;66172;48.526;8.078;2023-07-13T12:45:24;6.05;;;1.70;;
77191;SDS011;66172;48.526;8.078;2023-07-13T12:47:55;5.30;;;1.57;;
77191;SDS011;66172;48.526;8.078;2023-07-13T12:50:34;5.35;;;1.42;;
77191;SDS011;66172;48.526;8.078;2023-07-13T12:53:05;7.03;;;1.90;;
77191;SDS011;66172;48.526;8.078;2023-07-13T12:55:42;5.43;;;1.85;;
77191;SDS011;66172;48.526;8.078;2023-07-13T12:58:24;5.90;;;1.70;;
77191;SDS011;66172;48.526;8.078;2023-07-13T13:00:59;5.07;;;1.73;;
77191;SDS011;66172;48.526;8.078;2023-07-13T13:06:04;8.32;;;1.55;;
77191;SDS011;66172;48.526;8.078;2023-07-13T13:08:55;7.75;;;1.83;;
77191;SDS011;66172;48.526;8.078;2023-07-13T13:11:31;4.53;;;1.50;;
77191;SDS011;66172;48.526;8.078;2023-07-13T13:13:57;7.47;;;1.83;;
77191;SDS011;66172;48.526;8.078;2023-07-13T13:16:26;5.13;;;1.60;;
77191;SDS011;66172;48.526;8.078;2023-07-13T13:18:58;6.55;;;1.90;;
77191;SDS011;66172;48.526;8.078;2023-07-13T13:21:27;5.53;;;1.50;;
77191;SDS011;66172;48.526;8.078;2023-07-13T13:23:53;6.93;;;2.20;;
77191;SDS011;66172;48.526;8.078;2023-07-13T13:26:20;5.93;;;1.90;;
77191;SDS011;66172;48.526;8.078;2023-07-13T13:28:47;6.53;;;1.65;;
77191;SDS011;66172;48.526;8.078;2023-07-13T13:31:14;5.07;;;1.60;;
77191;SDS011;66172;48.526;8.078;2023-07-13T13:33:41;6.43;;;1.80;;
77191;SDS011;66172;48.526;8.078;2023-07-13T13:36:28;5.63;;;2.10;;
77191;SDS011;66172;48.526;8.078;2023-07-13T13:38:56;4.97;;;1.40;;
77191;SDS011;66172;48.526;8.078;2023-07-13T13:41:21;8.50;;;1.50;;
77191;SDS011;66172;48.526;8.078;2023-07-13T13:43:47;5.93;;;1.88;;
77191;SDS011;66172;48.526;8.078;2023-07-13T13:48:44;7.03;;;1.80;;
77191;SDS011;66172;48.526;8.078;2023-07-13T13:51:20;6.22;;;1.80;;
77191;SDS011;66172;48.526;8.078;2023-07-13T13:53:49;6.80;;;1.50;;
77191;SDS011;66172;48.526;8.078;2023-07-13T13:56:16;4.55;;;1.65;;
77191;SDS011;66172;48.526;8.078;2023-07-13T13:58:43;6.77;;;2.40;;
77191;SDS011;66172;48.526;8.078;2023-07-13T14:01:13;7.35;;;2.00;;
77191;SDS011;66172;48.526;8.078;2023-07-13T14:03:45;5.32;;;1.70;;
77191;SDS011;66172;48.526;8.078;2023-07-13T14:06:14;7.70;;;1.65;;
77191;SDS011;66172;48.526;8.078;2023-07-13T14:08:41;4.78;;;1.73;;
77191;SDS011;66172;48.526;8.078;2023-07-13T14:11:14;6.33;;;2.00;;
77191;SDS011;66172;48.526;8.078;2023-07-13T14:13:45;5.07;;;1.80;;
77191;SDS011;66172;48.526;8.078;2023-07-13T14:16:16;7.57;;;1.67;;
77191;SDS011;66172;48.526;8.078;2023-07-13T14:18:45;9.20;;;1.83;;
77191;SDS011;66172;48.526;8.078;2023-07-13T14:21:12;7.82;;;1.90;;
77191;SDS011;66172;48.526;8.078;2023-07-13T14:23:40;5.53;;;1.50;;
77191;SDS011;66172;48.526;8.078;2023-07-13T14:26:12;4.85;;;1.40;;
77191;SDS011;66172;48.526;8.078;2023-07-13T14:28:41;5.45;;;1.63;;
77191;SDS011;66172;48.526;8.078;2023-07-13T14:31:09;5.13;;;1.60;;
77191;SDS011;66172;48.526;8.078;2023-07-13T14:33:36;4.68;;;1.67;;
77191;SDS011;66172;48.526;8.078;2023-07-13T14:36:02;6.60;;;1.60;;
77191;SDS011;66172;48.526;8.078;2023-07-13T14:38:34;5.10;;;1.70;;
77191;SDS011;66172;48.526;8.078;2023-07-13T14:41:00;4.45;;;1.48;;
77191;SDS011;66172;48.526;8.078;2023-07-13T14:43:26;4.47;;;1.48;;
77191;SDS011;66172;48.526;8.078;2023-07-13T14:45:54;7.07;;;1.70;;
77191;SDS011;66172;48.526;8.078;2023-07-13T14:48:22;4.40;;;1.42;;
77191;SDS011;66172;48.526;8.078;2023-07-13T14:50:58;4.80;;;1.70;;
77191;SDS011;66172;48.526;8.078;2023-07-13T14:53:25;5.35;;;1.40;;
77191;SDS011;66172;48.526;8.078;2023-07-13T14:55:53;5.57;;;1.48;;
77191;SDS011;66172;48.526;8.078;2023-07-13T14:58:19;4.23;;;1.20;;
77191;SDS011;66172;48.526;8.078;2023-07-13T15:00:45;5.68;;;1.60;;
77191;SDS011;66172;48.526;8.078;2023-07-13T15:03:19;5.90;;;1.27;;
77191;SDS011;66172;48.526;8.078;2023-07-13T15:05:48;7.65;;;1.67;;
77191;SDS011;66172;48.526;8.078;2023-07-13T15:08:15;5.95;;;1.45;;
77191;SDS011;66172;48.526;8.078;2023-07-13T15:10:41;6.57;;;1.40;;
77191;SDS011;66172;48.526;8.078;2023-07-13T15:13:15;5.07;;;1.50;;
77191;SDS011;66172;48.526;8.078;2023-07-13T15:15:44;4.78;;;1.77;;
77191;SDS011;66172;48.526;8.078;2023-07-13T15:18:12;9.40;;;1.30;;
77191;SDS011;66172;48.526;8.078;2023-07-13T15:20:40;6.72;;;1.67;;
77191;SDS011;66172;48.526;8.078;2023-07-13T15:23:06;4.27;;;1.53;;
77191;SDS011;66172;48.526;8.078;2023-07-13T15:25:32;5.22;;;1.50;;
77191;SDS011;66172;48.526;8.078;2023-07-13T15:27:59;8.55;;;1.60;;
77191;SDS011;66172;48.526;8.078;2023-07-13T15:30:27;5.10;;;1.38;;
77191;SDS011;66172;48.526;8.078;2023-07-13T15:32:56;5.37;;;1.30;;
77191;SDS011;66172;48.526;8.078;2023-07-13T15:35:28;7.10;;;1.50;;
77191;SDS011;66172;48.526;8.078;2023-07-13T15:37:53;7.03;;;1.85;;
77191;SDS011;66172;48.526;8.078;2023-07-13T15:40:20;4.00;;;1.20;;
77191;SDS011;66172;48.526;8.078;2023-07-13T15:42:49;6.50;;;1.47;;